Last Chance, Iowa
Current Conditions -  °F | °C
As of 7:15 AM on Wednesday 22 Oct 2014 (Local Time) from KCNC Reporting Station
Broken Clouds Broken Clouds  
Wind Chill: 37°   Ceiling: 6000
Heat Index: 43°   Visibility: 10mi
Dew Point: 39°   Wind: 9mph
Humidity: 87%   Direction: 140°SE
Pressure: 30.24"   Gusts: NA
Location:  40.9417°N, 93.4995°W
Report Text: KCNC 221215Z AUTO 14008KT 10SM BKN060 06/04 A3024 RMK AO2
Loading
Personal Weather Stations






























Interactive Weather Map New forecast layout! Learn more

10-Day Weather Forecast

Advertisements
Track Severe Weather on mobile